Terminal Aerodrome Forecast
Issued by NWS

Home | Current Version | Previous Version | Text Only | Print | Product List | Glossary On
Versions: 1 2 3 4 5 6 7 8 9 10 11 12 13 14
000
FTUS45 KABQ 011626 AAA
TAFFMN
TAF AMD
KFMN 011626Z 0116/0212 12012G20KT P6SM SCT025 OVC040
      TEMPO 0116/0118 5SM -RA BR BKN020 OVC030
     FM011800 10010G20KT P6SM VCSH BKN035 BKN060
     FM012100 13012G20KT P6SM VCSH BKN050 BKN070
     FM012300 10012KT P6SM BKN080=

USA.gov is the U.S. government's official web portal to all federal, state and local government web resources and services.